createdAt,value
2023-03-11T00:00:49.651Z,86.55
2023-03-11T00:05:53.012Z,87.45
2023-03-11T00:10:56.324Z,88.33
2023-03-11T00:15:58.052Z,88.63
2023-03-11T00:21:00.620Z,90.66
2023-03-11T00:26:03.300Z,90.98
2023-03-11T00:31:05.083Z,91.63
2023-03-11T00:36:07.235Z,91.95
2023-03-11T00:41:08.944Z,92.36
2023-03-11T00:46:10.713Z,92.28
2023-03-11T00:51:15.005Z,93.43
2023-03-11T00:56:16.906Z,93.65
2023-03-11T01:01:20.199Z,93.81
2023-03-11T01:06:23.394Z,93.29
2023-03-11T01:11:27.862Z,92.14
2023-03-11T01:16:29.638Z,92.05
2023-03-11T01:21:31.389Z,90.48
2023-03-11T01:26:33.064Z,89.36
2023-03-11T01:31:34.714Z,89.67
2023-03-11T01:36:36.815Z,89.29
2023-03-11T01:41:38.431Z,89.18
2023-03-11T01:46:52.302Z,88.74
2023-03-11T01:52:07.681Z,88.99
2023-03-11T01:57:14.856Z,89.10
2023-03-11T02:02:28.902Z,88.54
2023-03-11T02:07:31.404Z,88.29
2023-03-11T02:12:36.122Z,88.52
2023-03-11T02:17:39.698Z,88.60
2023-03-11T02:22:42.515Z,88.79
2023-03-11T02:27:47.728Z,88.05
2023-03-11T02:32:50.721Z,88.96
2023-03-11T02:37:54.439Z,88.74
2023-03-11T02:43:00.948Z,88.06
2023-03-11T02:48:04.067Z,88.54
2023-03-11T02:53:08.108Z,88.38
2023-03-11T02:58:10.100Z,89.02
2023-03-11T03:03:12.020Z,89.69
2023-03-11T03:08:15.027Z,90.98
2023-03-11T03:13:17.063Z,91.25
2023-03-11T03:18:19.020Z,91.64
2023-03-11T03:23:21.127Z,92.40
2023-03-11T03:28:22.958Z,93.07
2023-03-11T03:33:25.096Z,93.20
2023-03-11T03:38:35.184Z,93.76
2023-03-11T03:43:37.342Z,93.77
2023-03-11T03:48:39.790Z,94.19
2023-03-11T03:53:51.554Z,94.13
2023-03-11T03:58:54.473Z,93.47
2023-03-11T04:04:01.006Z,92.58
2023-03-11T04:09:03.615Z,94.07
2023-03-11T04:14:09.633Z,93.59
2023-03-11T04:19:18.015Z,93.84
2023-03-11T04:24:20.511Z,94.78
2023-03-11T04:29:23.145Z,94.28
2023-03-11T04:34:28.069Z,94.82
2023-03-11T04:39:30.389Z,94.68
2023-03-11T04:44:36.007Z,95.12
2023-03-11T04:49:39.232Z,94.86
2023-03-11T04:54:43.559Z,93.51
2023-03-11T04:59:45.992Z,93.08
2023-03-11T05:04:49.489Z,93.11
2023-03-11T05:09:51.250Z,91.09
2023-03-11T05:14:53.189Z,91.50
2023-03-11T05:19:55.772Z,91.61
2023-03-11T05:25:02.432Z,90.27
2023-03-11T05:30:06.741Z,89.38
2023-03-11T05:35:11.106Z,89.60
2023-03-11T05:40:13.309Z,88.82
2023-03-11T05:45:15.770Z,88.70
2023-03-11T05:50:20.416Z,87.91
2023-03-11T05:55:23.571Z,87.25
2023-03-11T06:00:25.841Z,87.11
2023-03-11T06:05:28.441Z,86.20
2023-03-11T06:10:31.378Z,86.43
2023-03-11T06:15:34.449Z,87.06
2023-03-11T06:20:37.828Z,87.68
2023-03-11T06:25:39.719Z,86.57
2023-03-11T06:30:42.262Z,86.38
2023-03-11T06:35:59.106Z,87.29
2023-03-11T06:41:02.740Z,85.98
2023-03-11T06:46:16.843Z,86.03
2023-03-11T06:51:19.984Z,86.40
2023-03-11T06:56:23.224Z,86.38
2023-03-11T07:01:32.760Z,86.45
2023-03-11T07:06:37.151Z,86.14
2023-03-11T07:11:53.669Z,86.13
2023-03-11T07:17:02.119Z,84.83
2023-03-11T07:22:09.547Z,86.93
2023-03-11T07:27:11.182Z,87.04
2023-03-11T07:32:12.988Z,87.68
2023-03-11T07:37:15.495Z,87.45
2023-03-11T07:42:17.418Z,87.64
2023-03-11T07:47:21.364Z,88.14
2023-03-11T07:52:23.180Z,88.06
2023-03-11T07:57:25.034Z,85.96
2023-03-11T08:02:27.200Z,86.21
2023-03-11T08:07:31.602Z,86.03
2023-03-11T08:12:33.851Z,85.38
2023-03-11T08:17:35.775Z,84.99
2023-03-11T08:22:43.435Z,85.81
2023-03-11T08:27:50.541Z,85.39
2023-03-11T08:32:52.407Z,85.47
2023-03-11T08:37:54.717Z,85.84
2023-03-11T08:42:56.813Z,86.95
2023-03-11T08:47:58.601Z,85.47
2023-03-11T08:53:03.248Z,85.01
2023-03-11T08:58:05.175Z,85.29
2023-03-11T09:03:07.075Z,85.13
2023-03-11T09:08:08.868Z,85.94
2023-03-11T09:13:10.568Z,85.60
2023-03-11T09:18:16.296Z,85.95
2023-03-11T09:23:18.733Z,87.98
2023-03-11T09:28:20.631Z,88.36
2023-03-11T09:33:22.462Z,88.71
2023-03-11T09:38:24.605Z,88.28
2023-03-11T09:43:35.752Z,88.15
2023-03-11T09:48:40.738Z,87.79
2023-03-11T09:53:44.573Z,88.05
2023-03-11T09:58:48.540Z,85.80
2023-03-11T10:03:53.270Z,84.88
2023-03-11T10:09:04.322Z,86.19
2023-03-11T10:14:22.629Z,85.39
2023-03-11T10:19:50.627Z,85.27
2023-03-11T10:25:00.649Z,84.12
2023-03-11T10:30:13.797Z,82.70
2023-03-11T10:35:16.865Z,82.08
2023-03-11T10:40:40.175Z,81.68
2023-03-11T10:45:44.881Z,81.01
2023-03-11T10:50:50.777Z,80.25
2023-03-11T10:55:57.398Z,80.19
2023-03-11T11:01:15.647Z,78.86
2023-03-11T11:06:27.858Z,78.27
2023-03-11T11:11:29.580Z,79.57
2023-03-11T11:16:33.535Z,81.20
2023-03-11T11:21:39.467Z,82.01
2023-03-11T11:26:41.563Z,81.28
2023-03-11T11:31:46.070Z,81.76
2023-03-11T11:36:47.780Z,80.15
2023-03-11T11:41:50.194Z,80.61
2023-03-11T11:46:56.955Z,80.20
2023-03-11T11:52:01.341Z,80.05
2023-03-11T11:57:11.549Z,77.67
2023-03-11T12:02:19.118Z,74.29
2023-03-11T12:07:38.591Z,74.34
2023-03-11T12:12:56.609Z,72.64
2023-03-11T12:18:03.185Z,73.17
2023-03-11T12:23:11.756Z,74.83
2023-03-11T12:28:32.210Z,73.78
2023-03-11T12:33:53.642Z,73.62
2023-03-11T12:38:55.437Z,73.57
2023-03-11T12:43:59.607Z,73.99
2023-03-11T12:49:14.972Z,74.70
2023-03-11T12:54:34.070Z,76.35
2023-03-11T12:59:54.548Z,78.64
2023-03-11T13:05:11.236Z,81.92
2023-03-11T13:10:12.878Z,83.17
2023-03-11T13:15:28.813Z,82.51
2023-03-11T13:20:41.428Z,81.15
2023-03-11T13:25:51.911Z,80.96
2023-03-11T13:31:05.811Z,80.53
2023-03-11T13:36:17.420Z,80.13
2023-03-11T13:41:31.186Z,77.98
2023-03-11T13:46:40.478Z,77.12
2023-03-11T13:51:44.895Z,79.08
2023-03-11T13:56:57.111Z,76.87
2023-03-11T14:02:11.944Z,74.92
2023-03-11T14:07:15.334Z,74.11
2023-03-11T14:12:19.036Z,72.26
2023-03-11T14:17:21.161Z,72.70
2023-03-11T14:22:22.906Z,73.14
2023-03-11T14:27:24.583Z,71.13
2023-03-11T14:32:28.467Z,72.23
2023-03-11T14:37:34.295Z,72.96
2023-03-11T14:42:38.864Z,73.70
2023-03-11T14:47:44.920Z,71.59
2023-03-11T14:52:50.439Z,72.79
2023-03-11T14:57:55.593Z,71.31
2023-03-11T15:03:34.905Z,73.44
2023-03-11T15:08:46.890Z,70.75
2023-03-11T15:13:51.212Z,71.26
2023-03-11T15:18:54.434Z,71.56
2023-03-11T15:24:06.543Z,71.07
2023-03-11T15:29:16.678Z,69.73
2023-03-11T15:34:18.309Z,69.92
2023-03-11T15:39:32.285Z,70.75
2023-03-11T15:44:42.071Z,70.76
2023-03-11T15:49:43.916Z,70.30
2023-03-11T15:54:54.730Z,70.89
2023-03-11T15:59:59.220Z,70.81
2023-03-11T16:05:00.961Z,71.41
2023-03-11T16:10:04.359Z,71.83
2023-03-11T16:15:07.325Z,70.28
2023-03-11T16:20:09.543Z,71.66
2023-03-11T16:25:20.607Z,71.44
2023-03-11T16:30:23.732Z,73.29
2023-03-11T16:35:25.969Z,73.33
2023-03-11T16:40:28.951Z,74.05
2023-03-11T16:45:30.904Z,73.22
2023-03-11T16:50:34.265Z,73.81
2023-03-11T16:55:36.713Z,74.81
2023-03-11T17:00:38.682Z,74.32
2023-03-11T17:05:40.682Z,75.73
2023-03-11T17:10:44.292Z,76.27
2023-03-11T17:15:46.682Z,77.25
2023-03-11T17:20:48.332Z,78.37
2023-03-11T17:25:49.987Z,78.80
2023-03-11T17:30:51.733Z,79.79
2023-03-11T17:36:01.968Z,80.18
2023-03-11T17:41:08.709Z,79.88
2023-03-11T17:46:14.404Z,81.38
2023-03-11T17:51:21.546Z,79.44
2023-03-11T17:56:23.622Z,79.83
2023-03-11T18:01:27.248Z,79.89
2023-03-11T18:06:29.497Z,80.25
2023-03-11T18:11:31.281Z,80.42
2023-03-11T18:16:33.863Z,80.52
2023-03-11T18:21:35.623Z,80.16
2023-03-11T18:26:37.440Z,81.25
2023-03-11T18:31:39.381Z,81.50
2023-03-11T18:36:41.696Z,80.97
2023-03-11T18:41:43.764Z,81.26
2023-03-11T18:46:45.469Z,81.76
2023-03-11T18:51:47.113Z,82.12
2023-03-11T18:56:49.831Z,82.08
2023-03-11T19:01:51.805Z,82.88
2023-03-11T19:06:53.559Z,83.59
2023-03-11T19:11:55.393Z,83.43
2023-03-11T19:16:57.215Z,84.32
2023-03-11T19:21:58.910Z,84.42
2023-03-11T19:27:00.544Z,85.25
2023-03-11T19:32:03.561Z,84.07
2023-03-11T19:37:05.465Z,84.99
2023-03-11T19:42:07.233Z,84.51
2023-03-11T19:47:08.966Z,84.72
2023-03-11T19:52:11.182Z,84.81
2023-03-11T19:57:12.887Z,84.94
2023-03-11T20:02:14.785Z,85.23
2023-03-11T20:07:16.750Z,84.96
2023-03-11T20:12:18.473Z,85.58
2023-03-11T20:17:20.174Z,84.72
2023-03-11T20:22:22.086Z,85.57
2023-03-11T20:27:23.758Z,83.79
2023-03-11T20:32:25.549Z,83.93
2023-03-11T20:37:29.740Z,83.85
2023-03-11T20:42:31.943Z,84.79
2023-03-11T20:47:33.765Z,84.06
2023-03-11T20:52:36.315Z,83.62
2023-03-11T20:57:38.696Z,84.54
2023-03-11T21:02:41.927Z,83.33
2023-03-11T21:07:43.745Z,84.36
2023-03-11T21:12:45.411Z,84.78
2023-03-11T21:17:47.090Z,84.19
2023-03-11T21:22:48.792Z,84.39
2023-03-11T21:27:50.471Z,85.96
2023-03-11T21:32:52.252Z,85.79
2023-03-11T21:37:54.524Z,85.47
2023-03-11T21:42:56.223Z,86.49
2023-03-11T21:47:58.033Z,85.52
2023-03-11T21:52:59.720Z,84.56
2023-03-11T21:58:01.404Z,84.47
2023-03-11T22:03:03.324Z,83.58
2023-03-11T22:08:05.873Z,84.26
2023-03-11T22:13:08.004Z,85.50
2023-03-11T22:18:10.638Z,84.89
2023-03-11T22:23:12.482Z,85.35
2023-03-11T22:28:14.794Z,85.14
2023-03-11T22:33:16.448Z,84.69
2023-03-11T22:38:18.292Z,83.64
2023-03-11T22:43:20.056Z,83.35
2023-03-11T22:48:22.489Z,82.64
2023-03-11T22:53:25.073Z,84.46
2023-03-11T22:58:27.297Z,82.88
2023-03-11T23:03:29.235Z,82.39
2023-03-11T23:08:30.942Z,83.09
2023-03-11T23:13:35.602Z,83.26
2023-03-11T23:18:37.377Z,84.14
2023-03-11T23:23:39.088Z,84.14
2023-03-11T23:28:41.328Z,83.60
2023-03-11T23:33:43.420Z,84.10
2023-03-11T23:38:45.497Z,82.79
2023-03-11T23:43:47.585Z,82.07
2023-03-11T23:48:49.512Z,82.07
2023-03-11T23:53:51.166Z,83.10
2023-03-11T23:58:52.845Z,82.91
